createdAt,value
2022-09-04T00:00:18.860Z,99317.94
2022-09-04T00:03:03.535Z,99319.88
2022-09-04T00:05:39.356Z,99327.59
2022-09-04T00:08:12.053Z,99325.22
2022-09-04T00:10:55.856Z,99327.47
2022-09-04T00:13:31.812Z,99333.28
2022-09-04T00:16:21.093Z,99337.84
2022-09-04T00:19:07.874Z,99335.88
2022-09-04T00:21:44.508Z,99341.88
2022-09-04T00:24:17.897Z,99341.09
2022-09-04T00:26:52.913Z,99330.28
2022-09-04T00:29:43.737Z,99336.19
2022-09-04T00:32:25.430Z,99340.06
2022-09-04T00:35:01.537Z,99336.88
2022-09-04T00:37:38.559Z,99347.78
2022-09-04T00:40:26.832Z,99350.84
2022-09-04T00:43:27.017Z,99345.94
2022-09-04T00:46:31.986Z,99355.25
2022-09-04T00:49:16.815Z,99361.84
2022-09-04T00:52:36.248Z,99363.63
2022-09-04T00:55:41.518Z,99370.22
2022-09-04T00:58:36.285Z,99376.69
2022-09-04T01:01:04.438Z,99374.28
2022-09-04T01:04:28.829Z,99376.09
2022-09-04T01:07:23.019Z,99379.28
2022-09-04T01:10:19.596Z,99384.28
2022-09-04T01:12:57.812Z,99378.16
2022-09-04T01:15:34.544Z,99384.88
2022-09-04T01:18:13.379Z,99386.13
2022-09-04T01:20:58.804Z,99382.25
2022-09-04T01:23:40.894Z,99392.50
2022-09-04T01:26:19.964Z,99388.66
2022-09-04T01:29:13.860Z,99390.13
2022-09-04T01:32:28.174Z,99393.84
2022-09-04T01:35:12.655Z,99390.97
2022-09-04T01:37:57.552Z,99395.19
2022-09-04T01:40:40.844Z,99397.31
2022-09-04T01:43:21.274Z,99404.84
2022-09-04T01:46:01.390Z,99412.56
2022-09-04T01:48:47.585Z,99407.78
2022-09-04T01:51:29.213Z,99414.38
2022-09-04T01:54:37.547Z,99416.16
2022-09-04T01:57:24.338Z,99418.91
2022-09-04T02:00:09.456Z,99414.41
2022-09-04T02:02:56.514Z,99418.13
2022-09-04T02:05:45.680Z,99414.94
2022-09-04T02:08:37.133Z,99411.28
2022-09-04T02:11:09.687Z,99408.25
2022-09-04T02:13:53.877Z,99417.09
2022-09-04T02:16:31.353Z,99410.66
2022-09-04T02:19:30.251Z,99413.47
2022-09-04T02:22:15.403Z,99418.91
2022-09-04T02:24:57.750Z,99419.38
2022-09-04T02:27:35.092Z,99422.91
2022-09-04T02:30:10.415Z,99421.31
2022-09-04T02:33:07.547Z,99423.56
2022-09-04T02:35:46.444Z,99432.88
2022-09-04T02:38:25.259Z,99417.50
2022-09-04T02:40:58.888Z,99425.19
2022-09-04T02:43:57.580Z,99425.38
2022-09-04T02:47:02.121Z,99422.03
2022-09-04T02:49:59.602Z,99433.28
2022-09-04T02:52:40.559Z,99436.78
2022-09-04T02:55:39.952Z,99438.75
2022-09-04T02:58:14.856Z,99435.19
2022-09-04T03:01:04.846Z,99440.66
2022-09-04T03:03:46.803Z,99439.72
2022-09-04T03:06:23.969Z,99433.44
2022-09-04T03:08:59.222Z,99441.16
2022-09-04T03:11:37.386Z,99441.34
2022-09-04T03:14:23.708Z,99437.38
2022-09-04T03:17:02.769Z,99439.28
2022-09-04T03:19:45.313Z,99435.59
2022-09-04T03:22:24.411Z,99443.63
2022-09-04T03:25:14.712Z,99435.78
2022-09-04T03:27:41.380Z,99442.38
2022-09-04T03:30:11.286Z,99447.00
2022-09-04T03:33:03.834Z,99447.97
2022-09-04T03:35:52.257Z,99444.78
2022-09-04T03:38:25.337Z,99447.03
2022-09-04T03:41:11.243Z,99451.81
2022-09-04T03:44:23.144Z,99447.34
2022-09-04T03:47:17.212Z,99458.25
2022-09-04T03:50:09.735Z,99462.88
2022-09-04T03:52:51.192Z,99459.84
2022-09-04T03:55:45.586Z,99469.78
2022-09-04T03:58:52.388Z,99464.19
2022-09-04T04:01:37.709Z,99474.25
2022-09-04T04:04:13.709Z,99478.75
2022-09-04T04:06:57.331Z,99472.16
2022-09-04T04:10:02.345Z,99485.13
2022-09-04T04:12:51.559Z,99477.59
2022-09-04T04:15:24.419Z,99485.44
2022-09-04T04:17:50.921Z,99477.13
2022-09-04T04:20:41.101Z,99481.91
2022-09-04T04:23:21.545Z,99481.25
2022-09-04T04:25:55.512Z,99480.59
2022-09-04T04:28:59.979Z,99486.06
2022-09-04T04:31:45.795Z,99496.28
2022-09-04T04:34:21.609Z,99497.91
2022-09-04T04:37:06.045Z,99494.69
2022-09-04T04:40:34.039Z,99503.06
2022-09-04T04:43:18.578Z,99498.41
2022-09-04T04:45:57.242Z,99509.63
2022-09-04T04:49:00.674Z,99513.00
2022-09-04T04:52:25.270Z,99509.47
2022-09-04T04:55:06.696Z,99511.69
2022-09-04T04:58:14.762Z,99518.06
2022-09-04T05:01:25.188Z,99517.69
2022-09-04T05:04:17.237Z,99519.06
2022-09-04T05:06:54.810Z,99515.94
2022-09-04T05:09:42.563Z,99518.28
2022-09-04T05:12:15.010Z,99524.69
2022-09-04T05:14:59.842Z,99512.50
2022-09-04T05:17:34.654Z,99516.00
2022-09-04T05:20:26.279Z,99526.63
2022-09-04T05:23:11.353Z,99523.84
2022-09-04T05:25:37.911Z,99540.13
2022-09-04T05:28:21.558Z,99534.97
2022-09-04T05:30:48.135Z,99534.97
2022-09-04T05:33:34.638Z,99542.91
2022-09-04T05:36:18.305Z,99539.84
2022-09-04T05:39:04.463Z,99548.41
2022-09-04T05:41:36.802Z,99557.28
2022-09-04T05:44:12.366Z,99555.88
2022-09-04T05:47:02.393Z,99560.09
2022-09-04T05:49:44.093Z,99552.78
2022-09-04T05:52:23.237Z,99567.19
2022-09-04T05:55:17.022Z,99568.81
2022-09-04T05:57:59.138Z,99575.63
2022-09-04T06:00:29.433Z,99577.22
2022-09-04T06:03:16.388Z,99581.13
2022-09-04T06:06:04.641Z,99579.09
2022-09-04T06:08:50.752Z,99579.59
2022-09-04T06:11:51.468Z,99593.44
2022-09-04T06:14:44.479Z,99589.97
2022-09-04T06:17:18.537Z,99604.50
2022-09-04T06:20:04.412Z,99595.72
2022-09-04T06:22:56.109Z,99596.34
2022-09-04T06:25:41.705Z,99600.50
2022-09-04T06:28:11.261Z,99599.97
2022-09-04T06:31:02.975Z,99597.66
2022-09-04T06:33:43.806Z,99604.06
2022-09-04T06:36:25.824Z,99605.22
2022-09-04T06:39:03.012Z,99609.56
2022-09-04T06:41:41.903Z,99610.00
2022-09-04T06:44:11.219Z,99608.13
2022-09-04T06:47:11.598Z,99611.59
2022-09-04T06:49:58.721Z,99616.19
2022-09-04T06:52:29.157Z,99619.28
2022-09-04T06:55:08.398Z,99615.38
2022-09-04T06:58:03.352Z,99621.06
2022-09-04T07:00:39.762Z,99618.97
2022-09-04T07:03:16.267Z,99623.22
2022-09-04T07:05:57.964Z,99622.56
2022-09-04T07:08:42.991Z,99619.47
2022-09-04T07:11:44.778Z,99628.88
2022-09-04T07:14:32.344Z,99635.13
2022-09-04T07:17:19.910Z,99639.47
2022-09-04T07:20:17.144Z,99641.69
2022-09-04T07:23:02.984Z,99639.78
2022-09-04T07:25:32.915Z,99637.47
2022-09-04T07:28:19.102Z,99648.38
2022-09-04T07:31:07.193Z,99641.34
2022-09-04T07:33:50.447Z,99660.69
2022-09-04T07:36:45.662Z,99664.50
2022-09-04T07:39:28.656Z,99650.84
2022-09-04T07:42:01.425Z,99660.81
2022-09-04T07:44:59.165Z,99660.31
2022-09-04T07:47:34.961Z,99662.09
2022-09-04T07:50:17.485Z,99658.00
2022-09-04T07:52:50.390Z,99657.53
2022-09-04T07:55:41.362Z,99656.16
2022-09-04T07:58:41.172Z,99659.13
2022-09-04T08:01:42.695Z,99661.94
2022-09-04T08:04:51.066Z,99663.69
2022-09-04T08:07:33.160Z,99661.38
2022-09-04T08:10:05.731Z,99661.28
2022-09-04T08:13:03.564Z,99663.91
2022-09-04T08:15:42.967Z,99667.22
2022-09-04T08:18:21.271Z,99672.44
2022-09-04T08:21:13.989Z,99669.63
2022-09-04T08:23:46.497Z,99670.41
2022-09-04T08:26:31.436Z,99670.13
2022-09-04T08:29:32.156Z,99674.53
2022-09-04T08:32:04.443Z,99676.84
2022-09-04T08:34:42.393Z,99680.09
2022-09-04T08:37:20.976Z,99679.81
2022-09-04T08:39:59.086Z,99683.41
2022-09-04T08:42:47.004Z,99679.50
2022-09-04T08:45:19.380Z,99686.84
2022-09-04T08:48:19.275Z,99687.66
2022-09-04T08:51:06.334Z,99688.31
2022-09-04T08:54:10.159Z,99701.41
2022-09-04T08:56:58.647Z,99700.09
2022-09-04T08:59:30.991Z,99686.22
2022-09-04T09:02:25.121Z,99691.13
2022-09-04T09:05:23.052Z,99694.91
2022-09-04T09:08:31.984Z,99700.81
2022-09-04T09:11:04.966Z,99692.88
2022-09-04T09:13:57.703Z,99694.00
2022-09-04T09:16:49.782Z,99698.53
2022-09-04T09:19:28.420Z,99691.56
2022-09-04T09:21:57.762Z,99698.78
2022-09-04T09:24:42.850Z,99698.34
2022-09-04T09:27:21.671Z,99697.19
2022-09-04T09:30:04.560Z,99697.34
2022-09-04T09:32:43.249Z,99690.69
2022-09-04T09:35:51.600Z,99688.34
2022-09-04T09:38:34.832Z,99694.66
2022-09-04T09:41:10.543Z,99691.50
2022-09-04T09:44:31.236Z,99686.16
2022-09-04T09:47:16.440Z,99676.16
2022-09-04T09:49:55.065Z,99674.94
2022-09-04T09:52:41.884Z,99676.84
2022-09-04T09:55:38.603Z,99682.34
2022-09-04T09:58:30.291Z,99673.91
2022-09-04T10:01:00.160Z,99677.63
2022-09-04T10:03:59.388Z,99673.69
2022-09-04T10:06:40.489Z,99661.06
2022-09-04T10:09:37.906Z,99656.66
2022-09-04T10:12:16.624Z,99662.00
2022-09-04T10:15:13.854Z,99658.97
2022-09-04T10:18:01.893Z,99660.81
2022-09-04T10:20:37.023Z,99655.50
2022-09-04T10:23:07.644Z,99654.88
2022-09-04T10:25:55.510Z,99658.88
2022-09-04T10:29:10.064Z,99660.44
2022-09-04T10:32:06.804Z,99654.19
2022-09-04T10:35:15.053Z,99654.31
2022-09-04T10:38:00.470Z,99646.13
2022-09-04T10:40:54.078Z,99643.78
2022-09-04T10:43:51.900Z,99648.97
2022-09-04T10:46:24.863Z,99641.91
2022-09-04T10:49:14.706Z,99644.75
2022-09-04T10:52:06.517Z,99634.59
2022-09-04T10:54:45.145Z,99637.44
2022-09-04T10:57:14.582Z,99624.84
2022-09-04T11:00:07.675Z,99628.84
2022-09-04T11:03:33.319Z,99631.31
2022-09-04T11:06:11.869Z,99630.94
2022-09-04T11:09:09.325Z,99631.34
2022-09-04T11:11:41.833Z,99626.59
2022-09-04T11:14:39.444Z,99629.78
2022-09-04T11:17:30.899Z,99640.06
2022-09-04T11:20:27.170Z,99620.25
2022-09-04T11:23:21.224Z,99620.59
2022-09-04T11:26:26.463Z,99619.84
2022-09-04T11:29:16.780Z,99619.06
2022-09-04T11:32:21.164Z,99625.81
2022-09-04T11:35:22.214Z,99619.06
2022-09-04T11:37:58.640Z,99616.31
2022-09-04T11:41:15.955Z,99620.25
2022-09-04T11:43:42.441Z,99625.78
2022-09-04T11:46:11.918Z,99619.44
2022-09-04T11:49:16.037Z,99626.97
2022-09-04T11:52:02.244Z,99618.31
2022-09-04T11:54:56.195Z,99628.56
2022-09-04T11:57:57.252Z,99630.56
2022-09-04T12:00:23.891Z,99630.16
2022-09-04T12:03:30.756Z,99639.28
2022-09-04T12:06:23.291Z,99629.75
2022-09-04T12:09:14.310Z,99631.78
2022-09-04T12:12:28.988Z,99638.13
2022-09-04T12:15:23.505Z,99634.94
2022-09-04T12:18:22.282Z,99635.31
2022-09-04T12:21:07.627Z,99632.13
2022-09-04T12:23:53.039Z,99635.69
2022-09-04T12:26:22.560Z,99635.28
2022-09-04T12:29:20.111Z,99640.44
2022-09-04T12:32:12.171Z,99639.25
2022-09-04T12:34:46.112Z,99636.06
2022-09-04T12:37:36.789Z,99636.09
2022-09-04T12:40:22.121Z,99636.09
2022-09-04T12:42:58.809Z,99633.69
2022-09-04T12:45:50.500Z,99639.22
2022-09-04T12:48:36.028Z,99645.53
2022-09-04T12:51:26.627Z,99638.78
2022-09-04T12:54:12.653Z,99632.09
2022-09-04T12:56:49.084Z,99629.75
2022-09-04T12:59:58.097Z,99628.59
2022-09-04T13:02:34.216Z,99625.00
2022-09-04T13:05:07.014Z,99624.22
2022-09-04T13:07:55.846Z,99632.97
2022-09-04T13:10:46.134Z,99624.22
2022-09-04T13:13:18.677Z,99633.72
2022-09-04T13:15:54.276Z,99625.75
2022-09-04T13:18:31.671Z,99620.56
2022-09-04T13:21:00.872Z,99624.97
2022-09-04T13:23:36.955Z,99636.44
2022-09-04T13:26:16.651Z,99615.06
2022-09-04T13:28:51.176Z,99628.97
2022-09-04T13:31:33.542Z,99628.97
2022-09-04T13:34:13.274Z,99633.38
2022-09-04T13:37:16.929Z,99624.22
2022-09-04T13:40:16.706Z,99617.09
2022-09-04T13:42:52.677Z,99621.47
2022-09-04T13:45:24.097Z,99613.94
2022-09-04T13:48:06.617Z,99616.31
2022-09-04T13:50:42.653Z,99620.25
2022-09-04T13:53:32.534Z,99614.69
2022-09-04T13:56:06.743Z,99613.13
2022-09-04T13:58:51.344Z,99618.69
2022-09-04T14:01:22.633Z,99615.50
2022-09-04T14:03:57.743Z,99615.50
2022-09-04T14:06:27.104Z,99613.06
2022-09-04T14:09:04.592Z,99605.09
2022-09-04T14:11:47.512Z,99597.28
2022-09-04T14:14:59.761Z,99599.84
2022-09-04T14:17:56.176Z,99596.25
2022-09-04T14:20:34.336Z,99588.09
2022-09-04T14:23:21.874Z,99590.47
2022-09-04T14:26:04.068Z,99584.28
2022-09-04T14:28:37.710Z,99580.56
2022-09-04T14:31:10.383Z,99582.84
2022-09-04T14:34:03.417Z,99580.81
2022-09-04T14:36:42.754Z,99575.81
2022-09-04T14:39:18.311Z,99592.84
2022-09-04T14:42:12.289Z,99596.47
2022-09-04T14:44:47.587Z,99589.06
2022-09-04T14:47:26.704Z,99596.09
2022-09-04T14:50:01.267Z,99595.94
2022-09-04T14:52:44.614Z,99594.25
2022-09-04T14:55:26.688Z,99584.31
2022-09-04T14:58:23.975Z,99586.56
2022-09-04T15:01:07.194Z,99583.66
2022-09-04T15:03:55.450Z,99585.88
2022-09-04T15:06:44.623Z,99588.25
2022-09-04T15:09:23.655Z,99589.81
2022-09-04T15:12:21.027Z,99588.69
2022-09-04T15:14:50.315Z,99580.78
2022-09-04T15:17:30.264Z,99573.78
2022-09-04T15:20:05.270Z,99576.03
2022-09-04T15:22:46.254Z,99584.41
2022-09-04T15:25:19.085Z,99576.25
2022-09-04T15:28:30.671Z,99572.09
2022-09-04T15:31:31.606Z,99570.00
2022-09-04T15:34:08.522Z,99568.41
2022-09-04T15:36:39.273Z,99562.44
2022-09-04T15:39:18.381Z,99568.44
2022-09-04T15:41:50.023Z,99564.66
2022-09-04T15:44:20.063Z,99561.03
2022-09-04T15:47:02.148Z,99557.59
2022-09-04T15:49:47.998Z,99566.34
2022-09-04T15:52:40.291Z,99567.69
2022-09-04T15:55:37.550Z,99565.66
2022-09-04T15:58:33.479Z,99566.25
2022-09-04T16:01:06.470Z,99556.91
2022-09-04T16:03:47.878Z,99553.84
2022-09-04T16:06:25.221Z,99554.22
2022-09-04T16:08:58.890Z,99549.31
2022-09-04T16:11:34.280Z,99552.53
2022-09-04T16:14:04.104Z,99546.50
2022-09-04T16:16:53.483Z,99548.00
2022-09-04T16:19:29.071Z,99542.22
2022-09-04T16:22:24.349Z,99543.16
2022-09-04T16:25:06.199Z,99545.75
2022-09-04T16:27:44.340Z,99536.19
2022-09-04T16:30:44.463Z,99541.59
2022-09-04T16:33:28.424Z,99541.38
2022-09-04T16:36:02.772Z,99535.91
2022-09-04T16:38:44.181Z,99533.19
2022-09-04T16:41:29.138Z,99541.81
2022-09-04T16:44:14.648Z,99544.19
2022-09-04T16:47:02.545Z,99545.22
2022-09-04T16:49:35.673Z,99535.88
2022-09-04T16:52:22.687Z,99536.84
2022-09-04T16:55:48.037Z,99536.53
2022-09-04T16:58:54.483Z,99532.31
2022-09-04T17:01:32.048Z,99537.88
2022-09-04T17:04:30.648Z,99537.88
2022-09-04T17:07:15.919Z,99530.75
2022-09-04T17:10:09.617Z,99540.59
2022-09-04T17:12:59.032Z,99536.19
2022-09-04T17:15:36.678Z,99532.19
2022-09-04T17:18:10.388Z,99523.44
2022-09-04T17:22:40.467Z,99528.91
2022-09-04T17:28:56.762Z,99537.53
2022-09-04T17:29:12.272Z,99542.25
2022-09-04T17:29:39.414Z,99535.09
2022-09-04T17:32:53.811Z,99538.22
2022-09-04T17:40:39.449Z,99544.44
2022-09-04T17:40:54.948Z,99547.13
2022-09-04T17:41:38.293Z,99542.69
2022-09-04T17:44:22.306Z,99551.22
2022-09-04T17:47:13.125Z,99558.16
2022-09-04T17:49:48.145Z,99559.56
2022-09-04T17:52:27.038Z,99562.63
2022-09-04T17:55:06.054Z,99566.41
2022-09-04T17:57:51.678Z,99568.56
2022-09-04T18:00:25.154Z,99574.78
2022-09-04T18:03:15.086Z,99575.09
2022-09-04T18:05:53.520Z,99580.47
2022-09-04T18:08:48.397Z,99580.69
2022-09-04T18:11:28.996Z,99579.78
2022-09-04T18:14:18.694Z,99583.16
2022-09-04T18:17:12.723Z,99588.94
2022-09-04T18:19:48.146Z,99593.06
2022-09-04T18:22:26.769Z,99586.56
2022-09-04T18:25:20.426Z,99599.41
2022-09-04T18:28:12.088Z,99596.53
2022-09-04T18:37:06.944Z,99603.00
2022-09-04T18:37:19.634Z,99615.44
2022-09-04T18:37:44.861Z,99611.72
2022-09-04T18:40:06.378Z,99613.44
2022-09-04T18:50:22.333Z,99621.16
2022-09-04T18:50:28.225Z,99616.50
2022-09-04T18:50:48.708Z,99619.06
2022-09-04T18:51:31.342Z,99630.72
2022-09-04T18:54:10.434Z,99629.81
2022-09-04T18:56:45.547Z,99632.78
2022-09-04T18:59:26.617Z,99629.94
2022-09-04T19:02:02.492Z,99636.47
2022-09-04T19:04:40.025Z,99643.78
2022-09-04T19:07:31.979Z,99647.97
2022-09-04T19:10:07.838Z,99651.34
2022-09-04T19:12:47.028Z,99656.31
2022-09-04T19:15:37.042Z,99651.81
2022-09-04T19:18:27.245Z,99657.50
2022-09-04T19:21:14.286Z,99660.19
2022-09-04T19:23:44.310Z,99662.03
2022-09-04T19:26:23.342Z,99670.91
2022-09-04T19:29:08.719Z,99655.78
2022-09-04T19:31:42.249Z,99663.16
2022-09-04T19:34:13.075Z,99665.72
2022-09-04T19:37:04.999Z,99669.00
2022-09-04T19:43:14.763Z,99665.31
2022-09-04T19:46:09.037Z,99663.84
2022-09-04T19:46:25.850Z,99658.16
2022-09-04T19:49:34.794Z,99663.94
2022-09-04T19:53:33.500Z,99680.94
2022-09-04T19:55:24.782Z,99678.44
2022-09-04T19:58:25.720Z,99689.94
2022-09-04T20:01:01.678Z,99683.56
2022-09-04T20:03:36.490Z,99681.75
2022-09-04T20:06:26.990Z,99689.78
2022-09-04T20:08:59.487Z,99690.75
2022-09-04T20:11:40.853Z,99692.78
2022-09-04T20:14:46.041Z,99687.81
2022-09-04T20:17:51.851Z,99683.38
2022-09-04T20:20:23.553Z,99682.81
2022-09-04T20:22:56.327Z,99690.13
2022-09-04T20:25:58.684Z,99689.94
2022-09-04T20:28:36.391Z,99687.88
2022-09-04T20:31:28.407Z,99692.34
2022-09-04T20:34:15.324Z,99692.94
2022-09-04T20:36:49.704Z,99690.78
2022-09-04T20:39:24.518Z,99691.13
2022-09-04T20:42:09.586Z,99687.50
2022-09-04T20:45:38.662Z,99685.41
2022-09-04T20:52:50.063Z,99684.28
2022-09-04T20:52:50.396Z,99685.66
2022-09-04T20:54:08.008Z,99688.06
2022-09-04T21:00:04.067Z,99689.09
2022-09-04T21:03:14.333Z,99685.31
2022-09-04T21:03:39.422Z,99699.13
2022-09-04T21:06:22.696Z,99691.13
2022-09-04T21:08:57.166Z,99691.34
2022-09-04T21:11:40.879Z,99701.84
2022-09-04T21:14:44.842Z,99696.25
2022-09-04T21:17:51.262Z,99697.59
2022-09-04T21:20:59.725Z,99697.84
2022-09-04T21:23:59.644Z,99702.72
2022-09-04T21:26:52.218Z,99701.81
2022-09-04T21:29:27.723Z,99709.78
2022-09-04T21:32:12.847Z,99713.19
2022-09-04T21:34:57.728Z,99709.53
2022-09-04T21:37:40.089Z,99709.88
2022-09-04T21:40:49.700Z,99712.03
2022-09-04T21:43:41.976Z,99716.56
2022-09-04T21:46:23.939Z,99716.56
2022-09-04T21:49:27.026Z,99724.78
2022-09-04T21:52:45.942Z,99722.03
2022-09-04T21:57:13.499Z,99720.13
2022-09-04T21:58:21.361Z,99718.38
2022-09-04T22:02:43.814Z,99717.44
2022-09-04T22:04:20.297Z,99720.84
2022-09-04T22:10:52.849Z,99715.38
2022-09-04T22:13:45.995Z,99713.78
2022-09-04T22:13:49.385Z,99712.19
2022-09-04T22:16:35.052Z,99719.91
2022-09-04T22:19:23.958Z,99727.19
2022-09-04T22:22:25.471Z,99732.88
2022-09-04T22:25:17.024Z,99731.94
2022-09-04T22:28:08.231Z,99733.41
2022-09-04T22:30:56.190Z,99732.69
2022-09-04T22:34:15.191Z,99748.94
2022-09-04T22:37:11.038Z,99747.56
2022-09-04T22:39:59.417Z,99763.81
2022-09-04T22:42:47.298Z,99751.63
2022-09-04T22:45:29.053Z,99751.03
2022-09-04T22:47:58.828Z,99757.63
2022-09-04T22:50:36.250Z,99744.94
2022-09-04T22:53:26.897Z,99748.34
2022-09-04T22:56:19.169Z,99751.28
2022-09-04T22:59:09.193Z,99748.41
2022-09-04T23:02:13.771Z,99754.59
2022-09-04T23:05:12.497Z,99751.69
2022-09-04T23:12:39.019Z,99751.38
2022-09-04T23:13:47.523Z,99747.22
2022-09-04T23:14:48.040Z,99749.66
2022-09-04T23:17:26.602Z,99748.03
2022-09-04T23:26:33.668Z,99742.94
2022-09-04T23:26:49.408Z,99743.91
2022-09-04T23:26:50.182Z,99747.00
2022-09-04T23:29:11.555Z,99748.75
2022-09-04T23:31:48.742Z,99743.94
2022-09-04T23:34:19.569Z,99746.22
2022-09-04T23:37:06.691Z,99750.41
2022-09-04T23:39:33.387Z,99748.00
2022-09-04T23:42:24.612Z,99742.84
2022-09-04T23:45:18.643Z,99746.25
2022-09-04T23:48:03.031Z,99745.00
2022-09-04T23:50:45.285Z,99746.28
2022-09-04T23:53:16.656Z,99745.22
2022-09-04T23:56:31.555Z,99734.94
2022-09-04T23:59:36.395Z,99734.66
